Airfield :
LOGIN :

Register | Disclaimer

   EN    FR    IT 

 










Legend :    VFR   Marginal VFR   IFR   Intensive IFR   Very Intensive IFR
Visi :
Ceiling :
>= 8 km
>= 3000ft
5 to 8 km
1000 to 3000 ft
1500m to 5 km
500 to 1000 ft
800 to 1500m
200 to 500 ft
< 800m
< 200 ft
Symbols :   Thunderstorms  Fog  Heavy snow  Heavy precipitations  Wind > 20 kt
SIGMETs :     Misc.  Thunderstorms  Icing  Turbulence  Mountain Waves  Volcanic Ashes






- Airport Elevation : 7 ft
- IATA code : ESH


EGKA - Shoreham

CURRENT METAR :
  • 050820Z 17009KT 9999 FEW027 18/14 Q1008

EXPIRED METARs :
  • 050750Z 17007KT 9999 FEW035 17/13 Q1008
  • 050720Z 17007KT 9999 FEW035 17/13 Q1008
  • 050650Z 18007KT CAVOK 17/13 Q1008

TAF TAF EGKA
Valid from the 05 at 09:00 until the 05 at 18:00 UTC


050758Z 0509/0518 18008KT 9999 FEW020
TEMPO 0512/0518 7000 RA BKN011
PROB30
TEMPO 0515/0518 19015G25KT
ATIS : +44 1273 467 372



MET'MAP, your aeronautical weather chart ! - Copyright ORBIFLY December 2007 - Disclaimer

ORBIFLY MET'MAP TEAM :

Programming & Development : Alexandra Zaïnal
Concept & original design : Baudouin d'Aumeries
Assistance for programming : Marc-Olivier Méhu
Technical & hardware support : Manuel Goepfert

Contact : metmap@orbifly.com




SOURCES & CREDITS :

   NOAA